Plaia De Rueta — EAAA — position and weather

sailwx.info

Track history (hours):
 
Tides and Currents Weather Stations Pressure Air Temp Water Temp Dewpoint Dewpoint Depression Visibility Wind Speed Wind Dir Waves Ship Positions

Plaia De Rueta

Last reported at 2017-Sep-20 18:35 UTC. Time now 2017-Sep-20 22:07 UTC.
Position N 43°37' W 005°04'.

Length 32 m; draft 6 m.

Type: Fishing. MMSI: 224100180.

Date/timePositionNaut miles runAvg speedWind from/ knotsBaromVisibWave heightAir tempDewpointWater temp
2017-Sep-20 18:35N 43°37' W 005°04'2 9.6
2017-Sep-20 18:24N 43°37' W 005°06'4 9.5
2017-Sep-20 18:00N 43°36' W 005°12'6 9.7
2017-Sep-20 17:23N 43°36' W 005°20'4 9.7
2017-Sep-20 16:59N 43°36' W 005°25'6 9.6
2017-Sep-20 16:22N 43°35' W 005°33'10 3.1
2017-Sep-20 13:03N 43°41' W 005°22'0 0.7
2017-Sep-20 13:00N 43°41' W 005°22'1 2.1
2017-Sep-20 12:19N 43°41' W 005°20'3 1.6
2017-Sep-20 10:35N 43°41' W 005°16'6 1.7
2017-Sep-20 07:02N 43°45' W 005°10'1 3.3
2017-Sep-20 06:47N 43°44' W 005°09'2 3.4
2017-Sep-20 06:12N 43°43' W 005°07'3 3.3
2017-Sep-20 05:09N 43°42' W 005°03'1 4.1
2017-Sep-20 04:55N 43°41' W 005°01'9 0.2
2017-Sep-18 02:04N 43°33' W 005°04'6 9.7
2017-Sep-18 01:29N 43°34' W 005°12'9 9.6
2017-Sep-18 00:34N 43°35' W 005°24'1 9.9
2017-Sep-18 00:30N 43°35' W 005°25'510.1
2017-Sep-18 00:00N 43°35' W 005°32'610.1
2017-Sep-17 23:27N 43°34' W 005°40'2 3.8
2017-Sep-17 23:00N 43°33' W 005°42'0 0.0
2017-Sep-17 22:22N 43°33' W 005°42'  
2017-Sep-15 17:14N 43°33' W 005°42'0 0.0
2017-Sep-15 17:00N 43°33' W 005°42'0 0.0
2017-Sep-15 16:30N 43°33' W 005°42'0 0.0
2017-Sep-15 16:00N 43°33' W 005°42'4 7.4
2017-Sep-15 15:30N 43°34' W 005°37'5 9.9
2017-Sep-15 14:59N 43°35' W 005°30'5 9.9
2017-Sep-15 14:30N 43°37' W 005°24'4 8.4
2017-Sep-15 14:00N 43°39' W 005°18'0 1.0
2017-Sep-15 13:30N 43°39' W 005°19'2 3.0
2017-Sep-15 12:59N 43°40' W 005°20'1 2.6
2017-Sep-15 12:28N 43°40' W 005°22'2 3.2
2017-Sep-15 11:58N 43°39' W 005°22'2 3.1
2017-Sep-15 11:27N 43°38' W 005°20'2 3.4
2017-Sep-15 10:55N 43°37' W 005°18'3 5.1
2017-Sep-15 10:21N 43°36' W 005°14'0 0.7
2017-Sep-15 10:00N 43°36' W 005°14'1 1.5
2017-Sep-15 09:30N 43°36' W 005°13'4 1.7
2017-Sep-15 07:28N 43°33' W 005°10'2 3.0
2017-Sep-15 06:57N 43°34' W 005°11'1 3.1
2017-Sep-15 06:30N 43°35' W 005°12'3 5.0
2017-Sep-15 05:58N 43°36' W 005°09'4 0.1
2017-Sep-13 18:24N 43°34' W 005°13'710.0
2017-Sep-13 17:42N 43°35' W 005°22'2 9.8
2017-Sep-13 17:30N 43°35' W 005°25'5 9.8
2017-Sep-13 16:57N 43°35' W 005°32'4 9.8
2017-Sep-13 16:29N 43°34' W 005°39'2 5.1
2017-Sep-13 16:00N 43°33' W 005°42'0 0.0
2017-Sep-13 15:30N 43°33' W 005°42'1 1.1
2017-Sep-13 15:00N 43°34' W 005°41'5 9.7
2017-Sep-13 14:30N 43°35' W 005°35'5 9.5
2017-Sep-13 14:00N 43°37' W 005°29'5 9.7
2017-Sep-13 13:30N 43°40' W 005°23'1 2.8
2017-Sep-13 13:00N 43°41' W 005°22'4 3.0
2017-Sep-13 11:43N 43°40' W 005°17'1 3.2
2017-Sep-13 11:21N 43°39' W 005°16'1 2.5
2017-Sep-13 10:51N 43°39' W 005°14'8 1.5
2017-Sep-13 05:15N 43°42' W 005°03'1 4.1
2017-Sep-13 05:01N 43°41' W 005°01'9 0.2
2017-Sep-11 02:00N 43°32' W 005°04'510.5
2017-Sep-11 01:29N 43°33' W 005°11'710.5
2017-Sep-11 00:51N 43°35' W 005°20'410.5
2017-Sep-11 00:30N 43°35' W 005°25'610.3
2017-Sep-10 23:55N 43°35' W 005°34'5 9.9
2017-Sep-10 23:26N 43°34' W 005°40'  
Track history (hours):
 
Tides and Currents Weather Stations Pressure Air Temp Water Temp Dewpoint Dewpoint Depression Visibility Wind Speed Wind Dir Waves Ship Positions

Plaia De Rueta

Last reported at 2017-Sep-20 18:35 UTC. Time now 2017-Sep-20 22:07 UTC.
Position N 43°37' W 005°04'.

Length 32 m; draft 6 m.

Type: Fishing. MMSI: 224100180.

Date/timePositionNaut miles runAvg speedWind from/ knotsBaromVisibWave heightAir tempDewpointWater temp
2017-Sep-20 18:35N 43°37' W 005°04'2 9.6
2017-Sep-20 18:24N 43°37' W 005°06'4 9.5
2017-Sep-20 18:00N 43°36' W 005°12'6 9.7
2017-Sep-20 17:23N 43°36' W 005°20'4 9.7
2017-Sep-20 16:59N 43°36' W 005°25'6 9.6
2017-Sep-20 16:22N 43°35' W 005°33'10 3.1
2017-Sep-20 13:03N 43°41' W 005°22'0 0.7
2017-Sep-20 13:00N 43°41' W 005°22'1 2.1
2017-Sep-20 12:19N 43°41' W 005°20'3 1.6
2017-Sep-20 10:35N 43°41' W 005°16'6 1.7
2017-Sep-20 07:02N 43°45' W 005°10'1 3.3
2017-Sep-20 06:47N 43°44' W 005°09'2 3.4
2017-Sep-20 06:12N 43°43' W 005°07'3 3.3
2017-Sep-20 05:09N 43°42' W 005°03'1 4.1
2017-Sep-20 04:55N 43°41' W 005°01'9 0.2
2017-Sep-18 02:04N 43°33' W 005°04'6 9.7
2017-Sep-18 01:29N 43°34' W 005°12'9 9.6
2017-Sep-18 00:34N 43°35' W 005°24'1 9.9
2017-Sep-18 00:30N 43°35' W 005°25'510.1
2017-Sep-18 00:00N 43°35' W 005°32'610.1
2017-Sep-17 23:27N 43°34' W 005°40'2 3.8
2017-Sep-17 23:00N 43°33' W 005°42'0 0.0
2017-Sep-17 22:22N 43°33' W 005°42'  
2017-Sep-15 17:14N 43°33' W 005°42'0 0.0
2017-Sep-15 17:00N 43°33' W 005°42'0 0.0
2017-Sep-15 16:30N 43°33' W 005°42'0 0.0
2017-Sep-15 16:00N 43°33' W 005°42'4 7.4
2017-Sep-15 15:30N 43°34' W 005°37'5 9.9
2017-Sep-15 14:59N 43°35' W 005°30'5 9.9
2017-Sep-15 14:30N 43°37' W 005°24'4 8.4
2017-Sep-15 14:00N 43°39' W 005°18'0 1.0
2017-Sep-15 13:30N 43°39' W 005°19'2 3.0
2017-Sep-15 12:59N 43°40' W 005°20'1 2.6
2017-Sep-15 12:28N 43°40' W 005°22'2 3.2
2017-Sep-15 11:58N 43°39' W 005°22'2 3.1
2017-Sep-15 11:27N 43°38' W 005°20'2 3.4
2017-Sep-15 10:55N 43°37' W 005°18'3 5.1
2017-Sep-15 10:21N 43°36' W 005°14'0 0.7
2017-Sep-15 10:00N 43°36' W 005°14'1 1.5
2017-Sep-15 09:30N 43°36' W 005°13'4 1.7
2017-Sep-15 07:28N 43°33' W 005°10'2 3.0
2017-Sep-15 06:57N 43°34' W 005°11'1 3.1
2017-Sep-15 06:30N 43°35' W 005°12'3 5.0
2017-Sep-15 05:58N 43°36' W 005°09'4 0.1
2017-Sep-13 18:24N 43°34' W 005°13'710.0
2017-Sep-13 17:42N 43°35' W 005°22'2 9.8
2017-Sep-13 17:30N 43°35' W 005°25'5 9.8
2017-Sep-13 16:57N 43°35' W 005°32'4 9.8
2017-Sep-13 16:29N 43°34' W 005°39'2 5.1
2017-Sep-13 16:00N 43°33' W 005°42'0 0.0
2017-Sep-13 15:30N 43°33' W 005°42'1 1.1
2017-Sep-13 15:00N 43°34' W 005°41'5 9.7
2017-Sep-13 14:30N 43°35' W 005°35'5 9.5
2017-Sep-13 14:00N 43°37' W 005°29'5 9.7
2017-Sep-13 13:30N 43°40' W 005°23'1 2.8
2017-Sep-13 13:00N 43°41' W 005°22'4 3.0
2017-Sep-13 11:43N 43°40' W 005°17'1 3.2
2017-Sep-13 11:21N 43°39' W 005°16'1 2.5
2017-Sep-13 10:51N 43°39' W 005°14'8 1.5
2017-Sep-13 05:15N 43°42' W 005°03'1 4.1
2017-Sep-13 05:01N 43°41' W 005°01'9 0.2
2017-Sep-11 02:00N 43°32' W 005°04'510.5
2017-Sep-11 01:29N 43°33' W 005°11'710.5
2017-Sep-11 00:51N 43°35' W 005°20'410.5
2017-Sep-11 00:30N 43°35' W 005°25'610.3
2017-Sep-10 23:55N 43°35' W 005°34'5 9.9
2017-Sep-10 23:26N 43°34' W 005°40'  

Dump ship's entire track history